Time;durP1;ratioP1;P1;durP2;ratioP2;P2;SDS_P1;SDS_P2;PMS_P1;PMS_P2;Temp;Humidity;BMP_temperature;BMP_pressure;BME280_temperature;BME280_humidity;BME280_pressure;Samples;Min_cycle;Max_cycle;Signal;HPM_P1;HPM_P2
2021/01/15 00:00:13;;;;;;;;;;;-3.10;99.90;;;;;;5051573;28;19909;-67
2021/01/15 00:02:39;;;;;;;;;;;-3.10;99.90;;;;;;5051554;28;19935;-67
2021/01/15 00:05:05;;;;;;;;;;;-3.20;99.90;;;;;;5053681;28;19917;-67
2021/01/15 00:07:31;;;;;;;;;;;-3.20;99.90;;;;;;5067127;28;19913;-67
2021/01/15 00:09:57;;;;;;;;;;;-3.20;99.90;;;;;;5066429;28;20387;-67
2021/01/15 00:12:23;;;;;;;;;;;-3.20;99.90;;;;;;5062375;28;19915;-67
2021/01/15 00:14:49;;;;;;;;;;;-3.20;99.90;;;;;;5062685;28;19909;-67
2021/01/15 00:17:14;;;;;;;;;;;-3.20;99.90;;;;;;5063789;28;19924;-67
2021/01/15 00:19:40;;;;;;;;;;;-3.20;99.90;;;;;;5050932;28;19916;-67
2021/01/15 00:22:06;;;;;;;;;;;-3.30;99.90;;;;;;5053060;28;19963;-67
2021/01/15 00:24:32;;;;;;;;;;;-3.30;99.90;;;;;;5060710;28;19978;-67
2021/01/15 00:26:58;;;;;;;;;;;-3.30;99.90;;;;;;5055900;28;20263;-67
2021/01/15 00:29:24;;;;;;;;;;;-3.20;99.90;;;;;;5054850;28;19943;-67
2021/01/15 00:31:50;;;;;;;;;;;-3.20;99.90;;;;;;5066342;28;20263;-67
2021/01/15 00:34:16;;;;;;;;;;;-3.20;99.90;;;;;;5055262;28;20365;-67
2021/01/15 00:36:46;;;;;;;;;;;-3.20;99.90;;;;;;5047923;28;19909;-67
2021/01/15 00:39:14;;;;;;;;;;;-3.10;99.90;;;;;;5061607;28;19916;-67
2021/01/15 00:41:40;;;;;;;;;;;-3.10;99.90;;;;;;5054813;28;19912;-67
2021/01/15 00:44:06;;;;;;;;;;;-3.20;99.90;;;;;;5057446;28;20292;-67
2021/01/15 00:46:32;;;;;;;;;;;-3.10;99.90;;;;;;5067916;28;19912;-67
2021/01/15 00:48:58;;;;;;;;;;;-3.10;99.90;;;;;;5071598;28;19912;-67
2021/01/15 00:51:24;;;;;;;;;;;-3.00;99.90;;;;;;5062455;28;19958;-67
2021/01/15 00:53:50;;;;;;;;;;;-3.00;99.90;;;;;;5054551;28;19924;-67
2021/01/15 00:56:16;;;;;;;;;;;-3.00;99.90;;;;;;5054984;28;19912;-67
2021/01/15 00:58:44;;;;;;;;;;;-3.00;99.90;;;;;;5054201;28;19917;-67
2021/01/15 01:01:13;;;;;;;;;;;-2.90;99.90;;;;;;5054235;28;19916;-67
2021/01/15 01:03:39;;;;;;;;;;;-2.90;99.90;;;;;;5056440;28;19913;-67
2021/01/15 01:06:12;;;;;;;;;;;-2.90;99.90;;;;;;5054434;28;19920;-67
2021/01/15 01:08:38;;;;;;;;;;;-2.80;99.90;;;;;;5053272;28;19933;-67
2021/01/15 01:11:04;;;;;;;;;;;-2.80;99.90;;;;;;5055962;28;19920;-67
2021/01/15 01:13:30;;;;;;;;;;;-2.80;99.90;;;;;;5057062;28;20381;-67
2021/01/15 01:15:56;;;;;;;;;;;-2.80;99.90;;;;;;5056450;28;19917;-67
2021/01/15 01:18:22;;;;;;;;;;;-2.70;99.90;;;;;;5054028;28;21481;-67
2021/01/15 01:20:47;;;;;;;;;;;-2.80;99.90;;;;;;5057266;28;19939;-67
2021/01/15 01:23:13;;;;;;;;;;;-2.80;99.90;;;;;;5054149;28;19919;-67
2021/01/15 01:25:39;;;;;;;;;;;-2.70;99.90;;;;;;5054691;28;19913;-67
2021/01/15 01:28:05;;;;;;;;;;;-2.70;99.90;;;;;;5052267;28;19929;-67
2021/01/15 01:30:31;;;;;;;;;;;-2.70;99.90;;;;;;5052207;28;19963;-67
2021/01/15 01:32:57;;;;;;;;;;;-2.70;99.90;;;;;;5061827;28;19912;-67
2021/01/15 01:35:23;;;;;;;;;;;-2.70;99.90;;;;;;5063344;28;19944;-67
2021/01/15 01:37:49;;;;;;;;;;;-2.70;99.90;;;;;;5061338;28;19936;-67
2021/01/15 01:40:15;;;;;;;;;;;-2.60;99.90;;;;;;5053991;28;19978;-67
2021/01/15 01:42:41;;;;;;;;;;;-2.60;99.90;;;;;;5055699;28;19913;-67
2021/01/15 01:45:08;;;;;;;;;;;-2.60;99.90;;;;;;5059413;28;19913;-67
2021/01/15 01:47:34;;;;;;;;;;;-2.60;99.90;;;;;;5060420;28;19915;-67
2021/01/15 01:50:00;;;;;;;;;;;-2.70;99.90;;;;;;5053471;28;20308;-67
2021/01/15 01:52:26;;;;;;;;;;;-2.70;99.90;;;;;;5065243;28;20354;-67
2021/01/15 01:54:52;;;;;;;;;;;-2.60;99.90;;;;;;5058838;28;20281;-67
2021/01/15 01:57:17;;;;;;;;;;;-2.60;99.90;;;;;;5060847;28;20385;-67
2021/01/15 01:59:43;;;;;;;;;;;-2.60;99.90;;;;;;5057735;28;19919;-67
2021/01/15 02:02:09;;;;;;;;;;;-2.60;99.90;;;;;;5059907;28;19909;-67
2021/01/15 02:04:35;;;;;;;;;;;-2.60;99.90;;;;;;5054386;28;19916;-67
2021/01/15 02:07:01;;;;;;;;;;;-2.60;99.90;;;;;;5063336;28;20317;-67
2021/01/15 02:09:31;;;;;;;;;;;-2.60;99.90;;;;;;5053984;28;19917;-67
2021/01/15 02:12:10;;;;;;;;;;;-2.60;99.90;;;;;;5055707;28;19911;-67
2021/01/15 02:14:36;;;;;;;;;;;-2.60;99.90;;;;;;5051669;28;19920;-67
2021/01/15 02:17:02;;;;;;;;;;;-2.70;99.90;;;;;;5053529;28;19905;-67
2021/01/15 02:19:37;;;;;;;;;;;-2.70;99.90;;;;;;5052585;28;19912;-67
2021/01/15 02:22:22;;;;;;;;;;;-2.70;99.90;;;;;;5050323;28;19908;-67
2021/01/15 02:24:47;;;;;;;;;;;-2.70;99.90;;;;;;5056896;28;20268;-67
2021/01/15 02:27:15;;;;;;;;;;;-2.70;99.90;;;;;;5064760;28;19923;-67
2021/01/15 02:29:46;;;;;;;;;;;-2.70;99.90;;;;;;5063707;28;19917;-67
2021/01/15 02:32:39;;;;;;;;;;;-2.70;99.90;;;;;;5055726;28;19909;-67
2021/01/15 02:35:23;;;;;;;;;;;-2.80;99.90;;;;;;5045121;28;19908;-67
2021/01/15 02:38:08;;;;;;;;;;;-2.90;99.90;;;;;;5066086;28;19913;-67
2021/01/15 02:40:34;;;;;;;;;;;-2.90;99.90;;;;;;5061907;28;19909;-67
2021/01/15 02:43:01;;;;;;;;;;;-3.00;99.90;;;;;;5057524;28;19920;-67
2021/01/15 02:45:27;;;;;;;;;;;-3.00;99.90;;;;;;5060356;28;19912;-67
2021/01/15 02:47:53;;;;;;;;;;;-3.00;99.90;;;;;;5062407;28;19908;-67
2021/01/15 02:50:23;;;;;;;;;;;-3.00;99.90;;;;;;5061124;28;20423;-67
2021/01/15 02:52:48;;;;;;;;;;;-3.10;99.90;;;;;;5058593;28;19909;-67
2021/01/15 02:55:14;;;;;;;;;;;-3.10;99.90;;;;;;5052158;28;19944;-67
2021/01/15 02:57:40;;;;;;;;;;;-3.10;99.90;;;;;;5053890;28;19913;-67
2021/01/15 03:00:08;;;;;;;;;;;-3.20;99.90;;;;;;5052128;28;19913;-67
2021/01/15 03:02:34;;;;;;;;;;;-3.20;99.90;;;;;;5053066;28;19920;-67
2021/01/15 03:05:05;;;;;;;;;;;-3.10;99.90;;;;;;5053017;28;20354;-67
2021/01/15 03:07:31;;;;;;;;;;;-3.20;99.90;;;;;;5052828;28;19916;-67
2021/01/15 03:09:58;;;;;;;;;;;-3.20;99.90;;;;;;5052440;28;19943;-67
2021/01/15 03:12:24;;;;;;;;;;;-3.20;99.90;;;;;;5052198;28;20273;-67
2021/01/15 03:14:50;;;;;;;;;;;-3.20;99.90;;;;;;5055939;28;19917;-67
2021/01/15 03:17:16;;;;;;;;;;;-3.20;99.90;;;;;;5055077;28;20423;-67
2021/01/15 03:19:42;;;;;;;;;;;-3.20;99.90;;;;;;5058299;28;20357;-67
2021/01/15 03:22:15;;;;;;;;;;;-3.30;99.90;;;;;;5050749;28;19912;-67
2021/01/15 03:24:54;;;;;;;;;;;-3.30;99.90;;;;;;5055308;28;19912;-67
2021/01/15 03:27:20;;;;;;;;;;;-3.30;99.90;;;;;;5049095;28;19920;-67
2021/01/15 03:29:46;;;;;;;;;;;-3.30;99.90;;;;;;5059228;28;19931;-67
2021/01/15 03:32:12;;;;;;;;;;;-3.30;99.90;;;;;;5057185;28;20423;-67
2021/01/15 03:34:38;;;;;;;;;;;-3.30;99.90;;;;;;5050922;28;19909;-67
2021/01/15 03:37:04;;;;;;;;;;;-3.30;99.90;;;;;;5050754;28;20281;-67
2021/01/15 03:39:30;;;;;;;;;;;-3.30;99.90;;;;;;5050675;28;19909;-67
2021/01/15 03:41:56;;;;;;;;;;;-3.30;99.90;;;;;;5058496;28;19920;-67
2021/01/15 03:44:22;;;;;;;;;;;-3.40;99.90;;;;;;5054230;28;19908;-67
2021/01/15 03:46:51;;;;;;;;;;;-3.40;99.90;;;;;;5051957;28;19917;-67
2021/01/15 03:49:17;;;;;;;;;;;-3.40;99.90;;;;;;5059330;28;19909;-68
2021/01/15 03:51:43;;;;;;;;;;;-3.40;99.90;;;;;;5055821;28;19928;-68
2021/01/15 03:54:09;;;;;;;;;;;-3.40;99.90;;;;;;5064642;28;20003;-68
2021/01/15 03:56:35;;;;;;;;;;;-3.40;99.90;;;;;;5062330;28;19917;-68
2021/01/15 03:59:01;;;;;;;;;;;-3.50;99.90;;;;;;5067391;28;19909;-68
2021/01/15 04:01:27;;;;;;;;;;;-3.50;99.90;;;;;;5056019;28;19923;-68
2021/01/15 04:03:53;;;;;;;;;;;-3.50;99.90;;;;;;5059185;28;19969;-68
2021/01/15 04:06:22;;;;;;;;;;;-3.50;99.90;;;;;;5063452;28;19920;-68
2021/01/15 04:08:48;;;;;;;;;;;-3.50;99.90;;;;;;5055801;28;19909;-68
2021/01/15 04:11:14;;;;;;;;;;;-3.50;99.90;;;;;;5055145;28;20286;-68
2021/01/15 04:13:40;;;;;;;;;;;-3.50;99.90;;;;;;5055400;28;20293;-68
2021/01/15 04:16:06;;;;;;;;;;;-3.50;99.90;;;;;;5057111;28;19916;-68
2021/01/15 04:18:32;;;;;;;;;;;-3.50;99.90;;;;;;5057848;28;19913;-68
2021/01/15 04:20:58;;;;;;;;;;;-3.50;99.90;;;;;;5064860;28;19916;-68
2021/01/15 04:23:24;;;;;;;;;;;-3.50;99.90;;;;;;5062171;28;19915;-68
2021/01/15 04:25:50;;;;;;;;;;;-3.50;99.90;;;;;;5057485;28;19917;-68
2021/01/15 04:28:16;;;;;;;;;;;-3.50;99.90;;;;;;5058858;28;19929;-68
2021/01/15 04:30:42;;;;;;;;;;;-3.50;99.90;;;;;;5054710;28;19928;-68
2021/01/15 04:33:08;;;;;;;;;;;-3.50;99.90;;;;;;5054978;28;19920;-68
2021/01/15 04:35:34;;;;;;;;;;;-3.60;99.90;;;;;;5064902;28;19920;-68
2021/01/15 04:38:00;;;;;;;;;;;-3.60;99.90;;;;;;5056425;28;19924;-68
2021/01/15 04:40:26;;;;;;;;;;;-3.60;99.90;;;;;;5057305;28;20265;-68
2021/01/15 04:42:52;;;;;;;;;;;-3.60;99.90;;;;;;5060281;28;19936;-68
2021/01/15 04:45:19;;;;;;;;;;;-3.60;99.90;;;;;;5057972;28;20297;-68
2021/01/15 04:47:46;;;;;;;;;;;-3.60;99.90;;;;;;5060269;28;19912;-66
2021/01/15 04:50:12;;;;;;;;;;;-3.70;99.90;;;;;;5065559;28;19916;-68
2021/01/15 04:52:45;;;;;;;;;;;-3.70;99.90;;;;;;5050884;28;20297;-68
2021/01/15 04:55:13;;;;;;;;;;;-3.70;99.90;;;;;;5054735;28;19909;-68
2021/01/15 04:57:39;;;;;;;;;;;-3.70;99.90;;;;;;5053880;28;19908;-68
2021/01/15 05:00:06;;;;;;;;;;;-3.70;99.90;;;;;;5057228;28;20427;-68
2021/01/15 05:02:32;;;;;;;;;;;-3.70;99.90;;;;;;5038172;28;20286;-68
2021/01/15 05:04:58;;;;;;;;;;;-3.70;99.90;;;;;;5061281;28;20365;-68
2021/01/15 05:07:24;;;;;;;;;;;-3.70;99.90;;;;;;5061999;28;19904;-68
2021/01/15 05:09:50;;;;;;;;;;;-3.70;99.90;;;;;;5061232;28;19905;-68
2021/01/15 05:12:17;;;;;;;;;;;-3.70;99.90;;;;;;5056289;28;19917;-68
2021/01/15 05:14:49;;;;;;;;;;;-3.70;99.90;;;;;;5061749;28;19911;-68
2021/01/15 05:17:15;;;;;;;;;;;-3.70;99.90;;;;;;5056944;28;19908;-68
2021/01/15 05:19:41;;;;;;;;;;;-3.70;99.90;;;;;;5061871;28;19936;-68
2021/01/15 05:22:07;;;;;;;;;;;-3.80;99.90;;;;;;5066078;28;19913;-68
2021/01/15 05:24:34;;;;;;;;;;;-3.80;99.90;;;;;;5064747;28;19908;-68
2021/01/15 05:30:12;;;;;;;;;;;-3.80;99.90;;;;;;5064381;28;20381;-68
2021/01/15 05:32:39;;;;;;;;;;;-3.80;99.90;;;;;;5062138;28;19943;-68
2021/01/15 05:35:05;;;;;;;;;;;-3.90;99.90;;;;;;5062494;28;20673;-68
2021/01/15 05:37:31;;;;;;;;;;;-3.90;99.90;;;;;;5051521;28;19915;-68
2021/01/15 05:39:58;;;;;;;;;;;-3.90;99.90;;;;;;5063972;28;19908;-68
2021/01/15 05:42:24;;;;;;;;;;;-3.90;99.90;;;;;;5059204;28;19905;-68
2021/01/15 05:44:50;;;;;;;;;;;-3.90;99.90;;;;;;5056905;28;19912;-68
2021/01/15 05:47:16;;;;;;;;;;;-3.90;99.90;;;;;;5065396;28;19916;-68
2021/01/15 05:49:55;;;;;;;;;;;-3.90;99.90;;;;;;5055111;28;19905;-68
2021/01/15 05:52:21;;;;;;;;;;;-3.90;99.90;;;;;;5061747;28;19916;-68
2021/01/15 05:54:47;;;;;;;;;;;-3.90;99.90;;;;;;5056941;28;19908;-68
2021/01/15 05:57:26;;;;;;;;;;;-3.90;99.90;;;;;;5064005;28;19909;-68
2021/01/15 05:59:52;;;;;;;;;;;-3.90;99.90;;;;;;5056626;28;19909;-68
2021/01/15 06:02:18;;;;;;;;;;;-3.90;99.90;;;;;;5063272;28;19919;-68
2021/01/15 06:04:44;;;;;;;;;;;-3.90;99.90;;;;;;5059435;28;19909;-68
2021/01/15 06:07:10;;;;;;;;;;;-3.90;99.90;;;;;;5059802;28;19905;-68
2021/01/15 06:09:36;;;;;;;;;;;-4.00;99.90;;;;;;5058475;28;20376;-68
2021/01/15 06:12:22;;;;;;;;;;;-3.90;99.90;;;;;;5057685;28;19912;-68
2021/01/15 06:14:49;;;;;;;;;;;-3.90;99.90;;;;;;5052168;28;19920;-68
2021/01/15 06:17:18;;;;;;;;;;;-4.00;99.90;;;;;;5062619;28;19923;-68
2021/01/15 06:19:50;;;;;;;;;;;-4.00;99.90;;;;;;5060899;28;19909;-68
2021/01/15 06:22:29;;;;;;;;;;;-4.10;99.90;;;;;;5058948;28;19916;-68
2021/01/15 06:25:15;;;;;;;;;;;-4.10;99.90;;;;;;5058530;28;19916;-68
2021/01/15 06:27:41;;;;;;;;;;;-4.10;99.90;;;;;;5061296;28;20380;-68
2021/01/15 06:30:15;;;;;;;;;;;-4.10;99.90;;;;;;5062889;28;19916;-68
2021/01/15 06:32:42;;;;;;;;;;;-4.10;99.90;;;;;;5055604;28;19908;-68
2021/01/15 06:35:08;;;;;;;;;;;-4.00;99.90;;;;;;5050770;28;19917;-68
2021/01/15 06:37:34;;;;;;;;;;;-4.00;99.90;;;;;;5058448;28;19904;-68
2021/01/15 06:40:10;;;;;;;;;;;-4.00;99.90;;;;;;5055651;28;19911;-68
2021/01/15 06:42:42;;;;;;;;;;;-4.10;99.90;;;;;;5054780;28;19999;-68
2021/01/15 06:45:13;;;;;;;;;;;-4.10;99.90;;;;;;5035741;28;19935;-68
2021/01/15 06:47:43;;;;;;;;;;;-4.10;99.90;;;;;;5054134;28;19913;-68
2021/01/15 06:50:12;;;;;;;;;;;-4.10;99.90;;;;;;5036527;28;20368;-68
2021/01/15 06:52:38;;;;;;;;;;;-4.10;99.90;;;;;;5052185;28;20285;-69
2021/01/15 06:55:04;;;;;;;;;;;-4.10;99.90;;;;;;5055070;28;20008;-69
2021/01/15 06:57:30;;;;;;;;;;;-4.10;99.90;;;;;;5046563;28;19909;-68
2021/01/15 06:59:57;;;;;;;;;;;-4.20;99.90;;;;;;5052207;28;19912;-68
2021/01/15 07:02:23;;;;;;;;;;;-4.10;99.90;;;;;;5055707;28;19923;-68
2021/01/15 07:04:52;;;;;;;;;;;-4.20;99.90;;;;;;5053572;28;20389;-68
2021/01/15 07:07:18;;;;;;;;;;;-4.20;99.90;;;;;;5053343;28;20263;-68
2021/01/15 07:09:45;;;;;;;;;;;-4.20;99.90;;;;;;5053458;28;19916;-68
2021/01/15 07:12:12;;;;;;;;;;;-4.10;99.90;;;;;;5053191;28;19917;-68
2021/01/15 07:14:54;;;;;;;;;;;-4.20;99.90;;;;;;5054041;28;19920;-68
2021/01/15 07:17:40;;;;;;;;;;;-4.20;99.90;;;;;;5054805;28;20381;-69
2021/01/15 07:20:10;;;;;;;;;;;-4.20;99.90;;;;;;5050864;28;19915;-69
2021/01/15 07:22:43;;;;;;;;;;;-4.20;99.90;;;;;;5054691;28;19924;-68
2021/01/15 07:25:09;;;;;;;;;;;-4.20;99.90;;;;;;5050326;28;19919;-68
2021/01/15 07:27:35;;;;;;;;;;;-4.20;99.90;;;;;;5054888;28;20388;-68
2021/01/15 07:30:01;;;;;;;;;;;-4.20;99.90;;;;;;5053354;28;19921;-68
2021/01/15 07:32:27;;;;;;;;;;;-4.20;99.90;;;;;;5052122;28;19955;-68
2021/01/15 07:34:54;;;;;;;;;;;-4.20;99.90;;;;;;5052668;28;19909;-69
2021/01/15 07:37:25;;;;;;;;;;;-4.20;99.90;;;;;;5055216;28;19909;-69
2021/01/15 07:40:00;;;;;;;;;;;-4.20;99.90;;;;;;5051618;28;19913;-68
2021/01/15 07:42:44;;;;;;;;;;;-4.20;99.90;;;;;;5053152;28;19920;-68
2021/01/15 07:45:22;;;;;;;;;;;-4.10;99.90;;;;;;5047569;28;19909;-69
2021/01/15 07:47:51;;;;;;;;;;;-4.10;99.90;;;;;;5055237;28;20361;-68
2021/01/15 07:50:33;;;;;;;;;;;-4.10;99.90;;;;;;5052822;28;19924;-69
2021/01/15 07:53:08;;;;;;;;;;;-4.10;99.90;;;;;;5058661;28;19928;-69
2021/01/15 07:55:47;;;;;;;;;;;-4.10;99.90;;;;;;5054187;28;19912;-69
2021/01/15 07:58:14;;;;;;;;;;;-4.10;99.90;;;;;;5057607;28;19909;-69
2021/01/15 08:00:40;;;;;;;;;;;-4.00;99.90;;;;;;5051557;28;19920;-68
2021/01/15 08:03:06;;;;;;;;;;;-4.10;99.90;;;;;;5050947;28;19984;-69
2021/01/15 08:05:32;;;;;;;;;;;-4.00;99.90;;;;;;5052814;28;19925;-69
2021/01/15 08:08:08;;;;;;;;;;;-4.00;99.90;;;;;;5045715;28;20297;-68
2021/01/15 08:10:44;;;;;;;;;;;-4.00;99.90;;;;;;5052179;28;19916;-68
2021/01/15 08:13:27;;;;;;;;;;;-4.10;99.90;;;;;;5060304;28;19913;-68
2021/01/15 08:15:53;;;;;;;;;;;-4.10;99.90;;;;;;5055172;28;19913;-69
2021/01/15 08:18:19;;;;;;;;;;;-4.00;99.90;;;;;;5053713;28;20391;-69
2021/01/15 08:20:49;;;;;;;;;;;-4.10;99.90;;;;;;5058761;28;19908;-69
2021/01/15 08:23:21;;;;;;;;;;;-4.00;99.90;;;;;;5050738;28;19909;-69
2021/01/15 08:26:07;;;;;;;;;;;-4.00;99.90;;;;;;5055662;28;19928;-68
2021/01/15 08:28:33;;;;;;;;;;;-4.00;99.90;;;;;;5045829;28;20389;-68
2021/01/15 08:30:59;;;;;;;;;;;-4.00;99.90;;;;;;5058124;28;19917;-68
2021/01/15 08:33:26;;;;;;;;;;;-4.00;99.90;;;;;;5055374;28;19908;-68
2021/01/15 08:35:52;;;;;;;;;;;-4.00;99.90;;;;;;5050103;28;20410;-68
2021/01/15 08:38:26;;;;;;;;;;;-3.90;99.90;;;;;;5056170;28;19909;-68
2021/01/15 08:40:52;;;;;;;;;;;-3.90;99.90;;;;;;5056404;28;19919;-68
2021/01/15 08:43:18;;;;;;;;;;;-3.90;99.90;;;;;;5058362;28;19920;-68
2021/01/15 08:45:44;;;;;;;;;;;-3.90;99.90;;;;;;5058169;28;20289;-68
2021/01/15 08:48:10;;;;;;;;;;;-3.80;99.90;;;;;;5060150;28;19912;-68
2021/01/15 08:50:36;;;;;;;;;;;-3.80;99.90;;;;;;5059566;28;20300;-68
2021/01/15 08:53:02;;;;;;;;;;;-3.70;99.90;;;;;;5062744;28;20357;-68
2021/01/15 08:55:28;;;;;;;;;;;-3.80;99.90;;;;;;5055505;28;19958;-68
2021/01/15 08:57:54;;;;;;;;;;;-3.70;99.90;;;;;;5061007;28;19959;-68
2021/01/15 09:00:22;;;;;;;;;;;-3.70;99.90;;;;;;5059745;28;19913;-68
2021/01/15 09:02:48;;;;;;;;;;;-3.60;99.90;;;;;;5060706;28;19936;-68
2021/01/15 09:05:15;;;;;;;;;;;-3.50;99.90;;;;;;5058260;28;19904;-68
2021/01/15 09:07:44;;;;;;;;;;;-3.40;99.90;;;;;;5065783;28;19908;-68
2021/01/15 09:10:12;;;;;;;;;;;-3.40;99.90;;;;;;5057774;28;19919;-68
2021/01/15 09:12:48;;;;;;;;;;;-3.40;99.90;;;;;;5060419;28;19935;-68
2021/01/15 09:15:20;;;;;;;;;;;-3.30;99.90;;;;;;5051755;28;19912;-68
2021/01/15 09:17:46;;;;;;;;;;;-3.20;99.90;;;;;;5058533;28;19927;-68
2021/01/15 09:20:14;;;;;;;;;;;-3.20;99.90;;;;;;5063230;28;20384;-68
2021/01/15 09:22:40;;;;;;;;;;;-3.20;99.90;;;;;;5061888;28;19919;-68
2021/01/15 09:25:06;;;;;;;;;;;-3.10;99.90;;;;;;5059982;28;20339;-68
2021/01/15 09:27:32;;;;;;;;;;;-3.10;99.90;;;;;;5052131;28;20385;-68
2021/01/15 09:29:58;;;;;;;;;;;-3.10;99.90;;;;;;5060580;28;19923;-68
2021/01/15 09:32:24;;;;;;;;;;;-3.00;99.90;;;;;;5056209;28;19928;-69
2021/01/15 09:34:51;;;;;;;;;;;-2.90;99.90;;;;;;5060335;28;19912;-69
2021/01/15 09:37:17;;;;;;;;;;;-2.90;99.90;;;;;;5055643;28;20269;-69
2021/01/15 09:39:42;;;;;;;;;;;-2.80;99.90;;;;;;5057086;28;19917;-69
2021/01/15 09:42:10;;;;;;;;;;;-2.80;99.90;;;;;;5061733;28;19935;-69
2021/01/15 09:44:36;;;;;;;;;;;-2.80;99.90;;;;;;5060413;28;19913;-69
2021/01/15 09:47:02;;;;;;;;;;;-2.70;99.90;;;;;;5062674;28;19912;-69
2021/01/15 09:49:31;;;;;;;;;;;-2.70;99.90;;;;;;5054540;28;19917;-69
2021/01/15 09:51:57;;;;;;;;;;;-2.60;99.90;;;;;;5059607;28;19936;-68
2021/01/15 09:54:23;;;;;;;;;;;-2.60;99.90;;;;;;5054932;28;19920;-69
2021/01/15 09:56:49;;;;;;;;;;;-2.60;99.90;;;;;;5058415;28;19935;-68
2021/01/15 09:59:15;;;;;;;;;;;-2.60;99.90;;;;;;5057265;28;20400;-69
2021/01/15 10:01:41;;;;;;;;;;;-2.50;99.90;;;;;;5057220;28;19916;-68
2021/01/15 10:04:07;;;;;;;;;;;-2.50;99.90;;;;;;5052236;28;20949;-68
2021/01/15 10:06:36;;;;;;;;;;;-2.40;99.90;;;;;;5052046;28;19995;-68
2021/01/15 10:09:02;;;;;;;;;;;-2.40;99.90;;;;;;5052220;28;19931;-67
2021/01/15 10:11:29;;;;;;;;;;;-2.50;99.90;;;;;;5053237;28;20278;-68
2021/01/15 10:13:59;;;;;;;;;;;-2.40;99.90;;;;;;5053700;28;19912;-68
2021/01/15 10:16:25;;;;;;;;;;;-2.40;99.90;;;;;;5056605;28;19916;-68
2021/01/15 10:18:51;;;;;;;;;;;-2.40;99.90;;;;;;5058386;28;19927;-67
2021/01/15 10:21:21;;;;;;;;;;;-2.30;99.90;;;;;;5057686;28;19916;-68
2021/01/15 10:23:47;;;;;;;;;;;-2.30;99.90;;;;;;5060626;28;19912;-68
2021/01/15 10:26:19;;;;;;;;;;;-2.30;99.90;;;;;;5051940;28;19909;-68
2021/01/15 10:28:45;;;;;;;;;;;-2.30;99.90;;;;;;5052948;28;19923;-68
2021/01/15 10:31:11;;;;;;;;;;;-2.20;99.90;;;;;;5052742;28;19920;-67
2021/01/15 10:33:37;;;;;;;;;;;-2.10;99.90;;;;;;5054374;28;19916;-67
2021/01/15 10:36:05;;;;;;;;;;;-1.90;99.90;;;;;;5051873;28;19912;-68
2021/01/15 10:38:31;;;;;;;;;;;-1.90;99.90;;;;;;5053199;28;19909;-68
2021/01/15 10:40:58;;;;;;;;;;;-1.90;99.90;;;;;;5054770;28;19916;-67
2021/01/15 10:43:24;;;;;;;;;;;-1.90;99.90;;;;;;5053181;28;19935;-68
2021/01/15 10:45:50;;;;;;;;;;;-1.90;99.90;;;;;;5051787;28;19913;-67
2021/01/15 10:48:16;;;;;;;;;;;-1.80;99.90;;;;;;5047561;28;19912;-68
2021/01/15 10:50:42;;;;;;;;;;;-1.80;99.90;;;;;;5051968;28;20270;-67
2021/01/15 10:53:08;;;;;;;;;;;-1.80;99.90;;;;;;5048591;28;19927;-67
2021/01/15 10:55:34;;;;;;;;;;;-1.80;99.90;;;;;;5043464;28;19912;-67
2021/01/15 10:58:00;;;;;;;;;;;-1.80;99.90;;;;;;5049621;28;19916;-67
2021/01/15 11:00:26;;;;;;;;;;;-1.80;99.90;;;;;;5051266;28;19909;-67
2021/01/15 11:02:52;;;;;;;;;;;-1.80;99.90;;;;;;5049942;28;19915;-67
2021/01/15 11:05:17;;;;;;;;;;;-1.80;99.90;;;;;;5050343;28;19952;-67
2021/01/15 11:07:45;;;;;;;;;;;-1.80;99.90;;;;;;5050186;28;19984;-67
2021/01/15 11:10:14;;;;;;;;;;;-1.80;99.90;;;;;;5051217;28;19912;-67
2021/01/15 11:12:40;;;;;;;;;;;-1.80;99.90;;;;;;5048512;28;19924;-67
2021/01/15 11:15:07;;;;;;;;;;;-1.80;99.90;;;;;;5057413;28;19919;-67
2021/01/15 11:17:32;;;;;;;;;;;-1.80;99.90;;;;;;5049965;28;19913;-68
2021/01/15 11:19:58;;;;;;;;;;;-1.70;99.90;;;;;;5060011;28;20387;-67
2021/01/15 11:22:24;;;;;;;;;;;-1.60;99.90;;;;;;5056799;28;19912;-68
2021/01/15 11:24:52;;;;;;;;;;;-1.60;99.90;;;;;;5059574;28;19912;-68
2021/01/15 11:27:18;;;;;;;;;;;-1.50;99.90;;;;;;5060627;28;19928;-68
2021/01/15 11:29:44;;;;;;;;;;;-1.50;99.90;;;;;;5050316;28;19976;-68
2021/01/15 11:32:10;;;;;;;;;;;-1.60;99.90;;;;;;5056432;28;19979;-68
2021/01/15 11:34:36;;;;;;;;;;;-1.50;99.90;;;;;;5060086;28;19923;-68
2021/01/15 11:37:01;;;;;;;;;;;-1.60;99.90;;;;;;5057818;28;19916;-68
2021/01/15 11:39:27;;;;;;;;;;;-1.50;99.90;;;;;;5051630;28;19990;-68
2021/01/15 11:41:54;;;;;;;;;;;-1.50;99.90;;;;;;5051540;28;19935;-68
2021/01/15 11:44:20;;;;;;;;;;;-1.40;99.90;;;;;;5051227;28;20380;-68
2021/01/15 11:46:46;;;;;;;;;;;-1.60;99.90;;;;;;5051406;28;19930;-68
2021/01/15 11:49:12;;;;;;;;;;;-1.60;99.90;;;;;;5051320;28;19912;-69
2021/01/15 11:51:38;;;;;;;;;;;-1.70;99.90;;;;;;5051464;28;19924;-69
2021/01/15 11:54:12;;;;;;;;;;;-1.70;99.90;;;;;;5050069;28;19913;-69
2021/01/15 11:56:41;;;;;;;;;;;-1.80;99.90;;;;;;5056325;28;19915;-74
2021/01/15 11:59:09;;;;;;;;;;;-1.80;99.90;;;;;;5028321;28;19905;-69
2021/01/15 12:01:35;;;;;;;;;;;-1.80;99.90;;;;;;5050605;28;19917;-71
2021/01/15 12:04:01;;;;;;;;;;;-1.90;99.90;;;;;;5059017;28;20438;-70
2021/01/15 12:06:27;;;;;;;;;;;-1.90;99.90;;;;;;5056630;28;19908;-71
2021/01/15 12:08:53;;;;;;;;;;;-1.90;99.90;;;;;;5058574;28;20723;-71
2021/01/15 12:11:20;;;;;;;;;;;-2.00;99.90;;;;;;5051698;28;19917;-71
2021/01/15 12:13:46;;;;;;;;;;;-2.10;99.90;;;;;;5051470;28;19913;-71
2021/01/15 12:16:12;;;;;;;;;;;-2.10;99.90;;;;;;5051036;28;20289;-71
2021/01/15 12:18:38;;;;;;;;;;;-2.20;99.90;;;;;;5053072;28;19920;-71
2021/01/15 12:21:04;;;;;;;;;;;-2.30;99.90;;;;;;5054903;28;19913;-71
2021/01/15 12:23:30;;;;;;;;;;;-2.30;99.90;;;;;;5055092;28;19904;-71
2021/01/15 12:25:56;;;;;;;;;;;-2.30;99.90;;;;;;5046609;28;19913;-72
2021/01/15 12:28:22;;;;;;;;;;;-2.40;99.90;;;;;;5053357;28;19917;-72
2021/01/15 12:30:51;;;;;;;;;;;-2.30;99.90;;;;;;5054756;28;19913;-71
2021/01/15 12:33:17;;;;;;;;;;;-2.40;99.90;;;;;;5054594;28;19916;-71
2021/01/15 12:35:47;;;;;;;;;;;-2.50;99.90;;;;;;5051004;28;19908;-71
2021/01/15 12:38:16;;;;;;;;;;;-2.50;99.90;;;;;;5052947;28;20364;-71
2021/01/15 12:40:42;;;;;;;;;;;-2.50;99.90;;;;;;5053618;28;19921;-71
2021/01/15 12:43:09;;;;;;;;;;;-2.50;99.90;;;;;;5054303;28;19913;-71
2021/01/15 12:45:35;;;;;;;;;;;-2.50;99.90;;;;;;5053220;28;19959;-71
2021/01/15 12:48:02;;;;;;;;;;;-2.60;99.90;;;;;;5054164;28;19913;-71
2021/01/15 12:50:27;;;;;;;;;;;-2.60;99.90;;;;;;5053801;28;19908;-71
2021/01/15 12:52:53;;;;;;;;;;;-2.60;99.90;;;;;;5054206;28;20443;-71
2021/01/15 12:55:23;;;;;;;;;;;-2.60;99.90;;;;;;5053125;28;20427;-71
2021/01/15 12:57:49;;;;;;;;;;;-2.60;99.90;;;;;;5051843;28;19924;-71
2021/01/15 13:00:15;;;;;;;;;;;-2.60;99.90;;;;;;5053415;28;19921;-71
2021/01/15 13:02:41;;;;;;;;;;;-2.60;99.90;;;;;;5052585;28;20270;-71
2021/01/15 13:05:08;;;;;;;;;;;-2.60;99.90;;;;;;5045282;28;19912;-71
2021/01/15 13:07:33;;;;;;;;;;;-2.70;99.90;;;;;;5054481;28;19920;-71
2021/01/15 13:09:59;;;;;;;;;;;-2.70;99.90;;;;;;5050679;28;19921;-71
2021/01/15 13:12:26;;;;;;;;;;;-2.70;99.90;;;;;;5052235;28;19994;-71
2021/01/15 13:14:52;;;;;;;;;;;-2.80;99.90;;;;;;5054265;28;19922;-71
2021/01/15 13:17:18;;;;;;;;;;;-2.80;99.90;;;;;;5053938;28;19908;-71
2021/01/15 13:19:45;;;;;;;;;;;-2.80;99.90;;;;;;5054252;28;19913;-71
2021/01/15 13:22:11;;;;;;;;;;;-2.80;99.90;;;;;;5051748;28;19920;-71
2021/01/15 13:24:37;;;;;;;;;;;-2.70;99.90;;;;;;5054136;28;20635;-70
2021/01/15 13:27:04;;;;;;;;;;;-2.70;99.90;;;;;;5053552;28;19913;-70
2021/01/15 13:29:29;;;;;;;;;;;-2.80;99.90;;;;;;5053358;28;19929;-71
2021/01/15 13:31:56;;;;;;;;;;;-2.80;99.90;;;;;;5053133;28;20518;-71
2021/01/15 13:34:25;;;;;;;;;;;-2.80;99.90;;;;;;5054092;28;19924;-71
2021/01/15 13:36:51;;;;;;;;;;;-2.70;99.90;;;;;;5053944;28;20320;-71
2021/01/15 13:39:17;;;;;;;;;;;-2.70;99.90;;;;;;5052018;28;20285;-71
2021/01/15 13:41:43;;;;;;;;;;;-2.80;99.90;;;;;;5053853;28;19908;-71
2021/01/15 13:44:09;;;;;;;;;;;-2.80;99.90;;;;;;5052810;28;19917;-71
2021/01/15 13:46:35;;;;;;;;;;;-2.80;99.90;;;;;;5053260;28;20278;-70
2021/01/15 13:49:01;;;;;;;;;;;-2.90;99.90;;;;;;5053623;28;19913;-71
2021/01/15 13:51:27;;;;;;;;;;;-2.90;99.90;;;;;;5052619;28;19909;-73
2021/01/15 13:53:53;;;;;;;;;;;-2.90;99.90;;;;;;5051120;28;19966;-71
2021/01/15 13:56:20;;;;;;;;;;;-2.90;99.90;;;;;;5052594;28;19922;-72
2021/01/15 13:58:46;;;;;;;;;;;-3.00;99.90;;;;;;5050400;28;19932;-71
2021/01/15 14:01:11;;;;;;;;;;;-3.10;99.90;;;;;;5051406;28;20444;-71
2021/01/15 14:03:37;;;;;;;;;;;-3.10;99.90;;;;;;5050429;28;19915;-72
2021/01/15 14:06:03;;;;;;;;;;;-3.10;99.90;;;;;;5044415;28;19909;-70
2021/01/15 14:08:29;;;;;;;;;;;-3.20;99.90;;;;;;5045634;28;19917;-70
2021/01/15 14:10:56;;;;;;;;;;;-3.20;99.90;;;;;;5052066;28;19911;-70
2021/01/15 14:13:22;;;;;;;;;;;-3.20;99.90;;;;;;5053058;28;19921;-70
2021/01/15 14:15:48;;;;;;;;;;;-3.30;99.90;;;;;;5052590;28;20288;-70
2021/01/15 14:18:14;;;;;;;;;;;-3.30;99.90;;;;;;5050850;28;20369;-69
2021/01/15 14:20:40;;;;;;;;;;;-3.30;99.90;;;;;;5051852;28;20319;-70